createdAt,value
2023-03-26T00:02:14.728Z,6.77
2023-03-26T00:04:42.597Z,6.80
2023-03-26T00:07:10.283Z,6.79
2023-03-26T00:09:36.784Z,6.77
2023-03-26T00:12:03.456Z,6.78
2023-03-26T00:14:30.405Z,6.78
2023-03-26T00:16:56.839Z,6.77
2023-03-26T00:19:23.254Z,6.79
2023-03-26T00:21:51.568Z,6.75
2023-03-26T00:24:18.070Z,6.75
2023-03-26T00:26:44.784Z,6.79
2023-03-26T00:29:13.511Z,6.78
2023-03-26T00:31:40.890Z,6.73
2023-03-26T00:34:07.275Z,6.75
2023-03-26T00:36:35.774Z,6.73
2023-03-26T00:39:05.383Z,6.74
2023-03-26T00:41:32.251Z,6.77
2023-03-26T00:43:59.991Z,6.73
2023-03-26T00:46:28.781Z,6.69
2023-03-26T00:48:58.612Z,6.68
2023-03-26T00:51:26.496Z,6.69
2023-03-26T00:53:53.097Z,6.68
2023-03-26T00:56:19.524Z,6.69
2023-03-26T00:58:47.376Z,6.68
2023-03-26T01:01:27.916Z,6.67
2023-03-26T01:04:08.167Z,6.66
2023-03-26T01:06:38.991Z,6.68
2023-03-26T01:09:14.285Z,6.67
2023-03-26T01:11:40.785Z,6.67
2023-03-26T01:14:12.932Z,6.68
2023-03-26T01:16:49.788Z,6.65
2023-03-26T01:19:33.906Z,6.63
2023-03-26T01:22:00.698Z,6.62
2023-03-26T01:24:27.136Z,6.62
2023-03-26T01:27:11.887Z,6.62
2023-03-26T01:29:54.108Z,6.63
2023-03-26T01:32:26.499Z,6.62
2023-03-26T01:35:08.517Z,6.63
2023-03-26T01:38:23.066Z,6.63
2023-03-26T01:40:59.732Z,6.64
2023-03-26T01:43:44.666Z,6.65
2023-03-26T01:46:13.769Z,6.67
2023-03-26T01:48:43.244Z,6.69
2023-03-26T01:51:12.424Z,6.70
2023-03-26T01:53:45.050Z,6.70
2023-03-26T01:56:31.374Z,6.69
2023-03-26T01:59:23.494Z,6.69
2023-03-26T02:01:57.272Z,6.69
2023-03-26T02:04:33.951Z,6.69
2023-03-26T02:07:21.684Z,6.67
2023-03-26T02:09:53.121Z,6.66
2023-03-26T02:12:22.120Z,6.64
2023-03-26T02:14:48.903Z,6.64
2023-03-26T02:17:16.724Z,6.64
2023-03-26T02:19:43.165Z,6.64
2023-03-26T02:22:15.667Z,6.63
2023-03-26T02:24:43.612Z,6.63
2023-03-26T02:27:12.357Z,6.62
2023-03-26T02:29:40.133Z,6.60
2023-03-26T02:32:08.255Z,6.60
2023-03-26T02:34:34.624Z,6.61
2023-03-26T02:37:01.032Z,6.62
2023-03-26T02:39:27.626Z,6.63
2023-03-26T02:41:54.465Z,6.63
2023-03-26T02:44:21.110Z,6.63
2023-03-26T02:46:47.467Z,6.63
2023-03-26T02:49:13.919Z,6.66
2023-03-26T02:51:40.413Z,6.67
2023-03-26T02:54:09.845Z,6.70
2023-03-26T02:56:36.582Z,6.71
2023-03-26T02:59:03.246Z,6.73
2023-03-26T03:01:30.890Z,6.75
2023-03-26T03:03:57.633Z,6.72
2023-03-26T03:06:26.319Z,6.74
2023-03-26T03:08:54.088Z,6.78
2023-03-26T03:11:24.944Z,6.79
2023-03-26T03:13:52.548Z,6.80
2023-03-26T03:16:19.919Z,6.82
2023-03-26T03:18:47.568Z,6.82
2023-03-26T03:21:13.985Z,6.85
2023-03-26T03:23:40.962Z,6.85
2023-03-26T03:26:14.387Z,6.87
2023-03-26T03:28:41.158Z,6.89
2023-03-26T03:31:09.073Z,6.91
2023-03-26T03:33:35.706Z,6.94
2023-03-26T03:36:06.944Z,6.97
2023-03-26T03:38:33.305Z,6.98
2023-03-26T03:40:59.657Z,6.99
2023-03-26T03:43:27.484Z,7.02
2023-03-26T03:45:54.094Z,7.04
2023-03-26T03:48:20.734Z,7.07
2023-03-26T03:50:47.228Z,7.11
2023-03-26T03:53:15.864Z,7.12
2023-03-26T03:55:42.996Z,7.12
2023-03-26T03:58:09.507Z,7.14
2023-03-26T04:00:41.630Z,7.15
2023-03-26T04:03:10.026Z,7.14
2023-03-26T04:05:36.679Z,7.17
2023-03-26T04:08:03.214Z,7.18
2023-03-26T04:10:29.615Z,7.19
2023-03-26T04:12:56.037Z,7.19
2023-03-26T04:15:22.429Z,7.21
2023-03-26T04:17:48.925Z,7.24
2023-03-26T04:20:15.655Z,7.24
2023-03-26T04:22:43.552Z,7.26
2023-03-26T04:25:11.953Z,7.26
2023-03-26T04:27:41.752Z,7.28
2023-03-26T04:30:14.433Z,7.28
2023-03-26T04:32:42.875Z,7.28
2023-03-26T04:35:14.474Z,7.28
2023-03-26T04:37:44.158Z,7.28
2023-03-26T04:40:20.469Z,7.28
2023-03-26T04:42:46.881Z,7.27
2023-03-26T04:45:15.928Z,7.28
2023-03-26T04:47:42.523Z,7.27
2023-03-26T04:50:11.122Z,7.27
2023-03-26T04:52:38.510Z,7.26
2023-03-26T04:55:13.776Z,7.26
2023-03-26T04:57:46.134Z,7.25
2023-03-26T05:00:17.207Z,7.25
2023-03-26T05:02:43.840Z,7.26
2023-03-26T05:05:10.740Z,7.25
2023-03-26T05:07:37.623Z,7.25
2023-03-26T05:10:05.518Z,7.25
2023-03-26T05:12:31.962Z,7.25
2023-03-26T05:14:58.371Z,7.24
2023-03-26T05:17:25.387Z,7.24
2023-03-26T05:19:52.572Z,7.25
2023-03-26T05:22:19.344Z,7.24
2023-03-26T05:24:46.268Z,7.24
2023-03-26T05:27:22.367Z,7.26
2023-03-26T05:29:48.858Z,7.27
2023-03-26T05:32:15.556Z,7.26
2023-03-26T05:34:41.933Z,7.27
2023-03-26T05:37:09.135Z,7.29
2023-03-26T05:39:35.600Z,7.30
2023-03-26T05:42:02.499Z,7.30
2023-03-26T05:44:29.004Z,7.30
2023-03-26T05:46:55.603Z,7.34
2023-03-26T05:49:22.195Z,7.32
2023-03-26T05:51:48.795Z,7.35
2023-03-26T05:54:15.257Z,7.36
2023-03-26T05:56:41.738Z,7.35
2023-03-26T05:59:08.388Z,7.36
2023-03-26T06:01:34.810Z,7.37
2023-03-26T06:04:01.853Z,7.38
2023-03-26T06:06:28.433Z,7.39
2023-03-26T06:09:01.382Z,7.39
2023-03-26T06:11:30.318Z,7.43
2023-03-26T06:13:56.746Z,7.46
2023-03-26T06:16:25.956Z,7.49
2023-03-26T06:18:56.736Z,7.52
2023-03-26T06:21:24.514Z,7.54
2023-03-26T06:23:51.767Z,7.55
2023-03-26T06:26:18.712Z,7.54
2023-03-26T06:28:45.272Z,7.57
2023-03-26T06:31:12.050Z,7.57
2023-03-26T06:33:38.538Z,7.58
2023-03-26T06:36:05.462Z,7.61
2023-03-26T06:38:32.065Z,7.64
2023-03-26T06:41:03.353Z,7.65
2023-03-26T06:43:33.573Z,7.66
2023-03-26T06:46:01.625Z,7.67
2023-03-26T06:48:28.145Z,7.71
2023-03-26T06:50:55.215Z,7.72
2023-03-26T06:53:21.972Z,7.71
2023-03-26T06:55:48.435Z,7.72
2023-03-26T06:58:14.874Z,7.74
2023-03-26T07:00:42.457Z,7.76
2023-03-26T07:03:09.787Z,7.77
2023-03-26T07:05:36.270Z,7.79
2023-03-26T07:08:03.134Z,7.81
2023-03-26T07:10:29.573Z,7.81
2023-03-26T07:12:56.100Z,7.82
2023-03-26T07:15:22.648Z,7.85
2023-03-26T07:17:49.114Z,7.83
2023-03-26T07:20:15.840Z,7.85
2023-03-26T07:22:42.763Z,7.90
2023-03-26T07:25:10.207Z,7.92
2023-03-26T07:27:36.774Z,7.93
2023-03-26T07:30:22.417Z,7.90
2023-03-26T07:33:06.522Z,7.92
2023-03-26T07:35:44.246Z,7.94
2023-03-26T07:38:43.942Z,8.00
2023-03-26T07:41:19.953Z,8.03
2023-03-26T07:43:56.701Z,8.02
2023-03-26T07:46:31.855Z,8.03
2023-03-26T07:48:59.969Z,8.06
2023-03-26T07:51:26.829Z,8.09
2023-03-26T07:53:53.635Z,8.11
2023-03-26T07:56:34.766Z,8.10
2023-03-26T07:59:31.379Z,8.12
2023-03-26T08:02:25.810Z,8.18
2023-03-26T08:05:18.968Z,8.19
2023-03-26T08:08:02.885Z,8.24
2023-03-26T08:10:35.482Z,8.22
2023-03-26T08:13:27.943Z,8.23
2023-03-26T08:16:08.251Z,8.20
2023-03-26T08:18:51.975Z,8.21
2023-03-26T08:21:35.041Z,8.27
2023-03-26T08:24:07.443Z,8.27
2023-03-26T08:26:49.347Z,8.23
2023-03-26T08:29:36.235Z,8.20
2023-03-26T08:32:04.484Z,8.24
2023-03-26T08:34:31.098Z,8.24
2023-03-26T08:36:57.439Z,8.28
2023-03-26T08:39:23.856Z,8.27
2023-03-26T08:42:19.717Z,8.26
2023-03-26T08:44:58.987Z,8.23
2023-03-26T08:47:50.190Z,8.16
2023-03-26T08:50:49.580Z,8.14
2023-03-26T08:53:21.734Z,8.08
2023-03-26T08:56:06.268Z,8.05
2023-03-26T08:58:53.513Z,8.02
2023-03-26T09:01:45.544Z,7.98
2023-03-26T09:04:34.133Z,7.96
2023-03-26T09:07:09.838Z,7.95
2023-03-26T09:09:57.783Z,7.92
2023-03-26T09:12:25.451Z,7.91
2023-03-26T09:15:11.263Z,7.90
2023-03-26T09:17:40.802Z,7.90
2023-03-26T09:20:48.519Z,7.88
2023-03-26T09:23:54.691Z,7.85
2023-03-26T09:26:25.777Z,7.86
2023-03-26T09:29:32.945Z,7.87
2023-03-26T09:32:10.573Z,7.89
2023-03-26T09:35:11.821Z,7.85
2023-03-26T09:37:56.993Z,7.88
2023-03-26T09:40:29.449Z,7.87
2023-03-26T09:43:16.547Z,7.86
2023-03-26T09:45:55.433Z,7.86
2023-03-26T09:48:50.443Z,7.85
2023-03-26T09:51:40.704Z,7.82
2023-03-26T09:54:28.371Z,7.83
2023-03-26T09:57:06.237Z,7.87
2023-03-26T09:59:35.652Z,7.90
2023-03-26T10:02:20.284Z,7.87
2023-03-26T10:05:02.057Z,7.82
2023-03-26T10:07:47.894Z,7.85
2023-03-26T10:10:23.101Z,7.85
2023-03-26T10:13:14.515Z,7.79
2023-03-26T10:16:15.387Z,7.83
2023-03-26T10:19:24.458Z,7.80
2023-03-26T10:22:15.564Z,7.81
2023-03-26T10:24:56.686Z,7.83
2023-03-26T10:27:41.667Z,7.86
2023-03-26T10:30:37.724Z,7.89
2023-03-26T10:33:46.814Z,7.91
2023-03-26T10:36:36.130Z,7.93
2023-03-26T10:39:36.648Z,7.89
2023-03-26T10:42:37.038Z,7.90
2023-03-26T10:45:17.852Z,7.93
2023-03-26T10:48:04.841Z,7.88
2023-03-26T10:50:42.233Z,7.86
2023-03-26T10:53:31.179Z,7.89
2023-03-26T10:56:10.845Z,7.88
2023-03-26T10:58:48.267Z,7.85
2023-03-26T11:01:42.305Z,7.83
2023-03-26T11:04:22.019Z,7.82
2023-03-26T11:07:06.607Z,7.90
2023-03-26T11:09:50.028Z,7.91
2023-03-26T11:12:31.397Z,7.96
2023-03-26T11:15:22.649Z,7.89
2023-03-26T11:18:12.533Z,7.83
2023-03-26T11:20:46.423Z,7.89
2023-03-26T11:23:24.977Z,7.98
2023-03-26T11:26:04.949Z,7.97
2023-03-26T11:28:42.434Z,8.02
2023-03-26T11:31:28.955Z,8.22
2023-03-26T11:34:03.086Z,8.26
2023-03-26T11:36:38.674Z,8.29
2023-03-26T11:39:13.626Z,8.24
2023-03-26T11:41:40.149Z,8.14
2023-03-26T11:44:23.288Z,8.12
2023-03-26T11:46:58.798Z,8.09
2023-03-26T11:49:27.035Z,7.98
2023-03-26T11:51:54.368Z,7.92
2023-03-26T11:54:21.071Z,7.82
2023-03-26T11:57:07.305Z,7.82
2023-03-26T11:59:57.054Z,7.81
2023-03-26T12:02:30.007Z,7.84
2023-03-26T12:05:12.234Z,7.94
2023-03-26T12:07:46.579Z,8.01
2023-03-26T12:10:39.053Z,8.10
2023-03-26T12:13:21.140Z,8.09
2023-03-26T12:15:48.019Z,8.13
2023-03-26T12:18:24.323Z,8.17
2023-03-26T12:21:22.225Z,8.16
2023-03-26T12:23:56.376Z,8.26
2023-03-26T12:26:30.729Z,8.34
2023-03-26T12:28:57.085Z,8.44
2023-03-26T12:31:26.408Z,8.57
2023-03-26T12:34:15.586Z,8.64
2023-03-26T12:36:49.177Z,8.70
2023-03-26T12:40:07.415Z,8.68
2023-03-26T12:44:47.003Z,8.70
2023-03-26T12:45:14.989Z,8.74
2023-03-26T12:47:57.980Z,8.79
2023-03-26T12:50:55.170Z,8.78
2023-03-26T12:53:40.781Z,8.78
2023-03-26T12:56:45.698Z,8.89
2023-03-26T12:59:29.869Z,8.97
2023-03-26T13:02:18.077Z,9.01
2023-03-26T13:05:09.396Z,9.08
2023-03-26T13:08:20.950Z,9.15
2023-03-26T13:11:06.179Z,9.25
2023-03-26T13:13:56.344Z,9.39
2023-03-26T13:16:48.332Z,9.46
2023-03-26T13:19:50.626Z,9.40
2023-03-26T13:22:42.035Z,9.46
2023-03-26T13:25:26.992Z,9.41
2023-03-26T13:27:56.317Z,9.30
2023-03-26T13:30:32.069Z,9.27
2023-03-26T13:33:11.676Z,9.28
2023-03-26T13:36:00.243Z,9.33
2023-03-26T13:38:58.858Z,9.32
2023-03-26T13:41:39.274Z,9.21
2023-03-26T13:44:42.859Z,9.29
2023-03-26T13:47:14.972Z,9.34
2023-03-26T13:49:51.799Z,9.45
2023-03-26T13:52:35.333Z,9.58
2023-03-26T13:55:19.943Z,9.57
2023-03-26T13:58:08.726Z,9.50
2023-03-26T14:00:49.688Z,9.62
2023-03-26T14:03:26.811Z,9.68
2023-03-26T14:05:57.227Z,9.63
2023-03-26T14:08:42.351Z,9.57
2023-03-26T14:11:16.238Z,9.53
2023-03-26T14:14:00.426Z,9.42
2023-03-26T14:16:36.749Z,9.38
2023-03-26T14:19:30.864Z,9.32
2023-03-26T14:22:37.010Z,9.24
2023-03-26T14:25:15.044Z,9.08
2023-03-26T14:28:18.428Z,9.01
2023-03-26T14:31:04.241Z,8.97
2023-03-26T14:33:56.150Z,9.04
2023-03-26T14:36:32.908Z,9.06
2023-03-26T14:39:27.103Z,9.05
2023-03-26T14:42:02.001Z,9.00
2023-03-26T14:44:48.026Z,8.95
2023-03-26T14:47:22.803Z,8.85
2023-03-26T14:49:53.502Z,8.83
2023-03-26T14:52:38.485Z,8.77
2023-03-26T14:55:14.006Z,8.73
2023-03-26T14:58:03.712Z,8.67
2023-03-26T15:00:48.871Z,8.68
2023-03-26T15:03:21.463Z,8.57
2023-03-26T15:05:57.212Z,8.46
2023-03-26T15:08:33.714Z,8.43
2023-03-26T15:11:09.871Z,8.43
2023-03-26T15:14:01.831Z,8.45
2023-03-26T15:16:34.301Z,8.53
2023-03-26T15:19:21.873Z,8.54
2023-03-26T15:22:12.701Z,8.57
2023-03-26T15:24:45.327Z,8.61
2023-03-26T15:27:17.785Z,8.62
2023-03-26T15:30:21.610Z,8.66
2023-03-26T15:32:49.575Z,8.72
2023-03-26T15:35:37.974Z,8.65
2023-03-26T15:38:35.148Z,8.59
2023-03-26T15:41:23.116Z,8.53
2023-03-26T15:44:23.739Z,8.42
2023-03-26T15:47:15.574Z,8.34
2023-03-26T15:49:47.879Z,8.29
2023-03-26T15:52:23.876Z,8.26
2023-03-26T15:55:19.051Z,8.21
2023-03-26T15:58:03.927Z,8.11
2023-03-26T16:00:41.468Z,8.04
2023-03-26T16:03:10.915Z,8.01
2023-03-26T16:05:53.212Z,8.03
2023-03-26T16:08:38.753Z,7.97
2023-03-26T16:11:12.619Z,7.90
2023-03-26T16:13:48.964Z,7.89
2023-03-26T16:16:15.509Z,7.84
2023-03-26T16:18:56.506Z,7.78
2023-03-26T16:21:34.277Z,7.78
2023-03-26T16:24:03.444Z,7.78
2023-03-26T16:26:51.644Z,7.74
2023-03-26T16:29:22.325Z,7.64
2023-03-26T16:32:09.895Z,7.57
2023-03-26T16:35:00.120Z,7.52
2023-03-26T16:37:39.664Z,7.46
2023-03-26T16:40:18.589Z,7.43
2023-03-26T16:43:30.798Z,7.40
2023-03-26T16:46:19.092Z,7.35
2023-03-26T16:49:00.376Z,7.28
2023-03-26T16:51:39.127Z,7.26
2023-03-26T16:54:19.244Z,7.28
2023-03-26T16:57:09.845Z,7.25
2023-03-26T17:00:07.364Z,7.23
2023-03-26T17:02:46.179Z,7.16
2023-03-26T17:05:29.725Z,7.07
2023-03-26T17:08:01.303Z,7.03
2023-03-26T17:10:38.362Z,6.96
2023-03-26T17:13:24.636Z,6.89
2023-03-26T17:16:16.178Z,6.81
2023-03-26T17:19:13.990Z,6.73
2023-03-26T17:22:02.251Z,6.67
2023-03-26T17:24:54.200Z,6.63
2023-03-26T17:27:56.902Z,6.61
2023-03-26T17:30:54.618Z,6.57
2023-03-26T17:33:29.937Z,6.52
2023-03-26T17:36:11.626Z,6.48
2023-03-26T17:38:45.271Z,6.46
2023-03-26T17:41:17.116Z,6.46
2023-03-26T17:43:53.009Z,6.43
2023-03-26T17:46:43.277Z,6.39
2023-03-26T17:49:12.902Z,6.37
2023-03-26T17:52:11.792Z,6.25
2023-03-26T17:54:44.217Z,6.21
2023-03-26T17:57:44.231Z,6.17
2023-03-26T18:00:23.456Z,6.14
2023-03-26T18:02:56.179Z,6.16
2023-03-26T18:05:26.608Z,6.07
2023-03-26T18:07:58.796Z,5.96
2023-03-26T18:11:02.632Z,5.85
2023-03-26T18:13:59.816Z,5.74
2023-03-26T18:16:38.957Z,5.65
2023-03-26T18:19:18.244Z,5.61
2023-03-26T18:21:59.262Z,5.57
2023-03-26T18:24:36.972Z,5.55
2023-03-26T18:27:08.754Z,5.56
2023-03-26T18:29:37.261Z,5.57
2023-03-26T18:32:09.760Z,5.57
2023-03-26T18:34:45.994Z,5.58
2023-03-26T18:37:23.025Z,5.60
2023-03-26T18:40:22.912Z,5.62
2023-03-26T18:42:54.974Z,5.63
2023-03-26T18:45:27.330Z,5.62
2023-03-26T18:47:57.313Z,5.62
2023-03-26T18:50:34.755Z,5.62
2023-03-26T18:53:01.694Z,5.60
2023-03-26T18:55:34.412Z,5.55
2023-03-26T18:58:20.880Z,5.50
2023-03-26T19:00:49.816Z,5.44
2023-03-26T19:03:22.088Z,5.36
2023-03-26T19:05:54.976Z,5.29
2023-03-26T19:08:23.734Z,5.21
2023-03-26T19:10:51.451Z,5.16
2023-03-26T19:13:21.373Z,5.14
2023-03-26T19:15:51.893Z,5.11
2023-03-26T19:18:26.573Z,5.15
2023-03-26T19:21:03.435Z,5.17
2023-03-26T19:23:33.158Z,5.19
2023-03-26T19:26:02.483Z,5.20
2023-03-26T19:28:35.225Z,5.21
2023-03-26T19:31:08.006Z,5.19
2023-03-26T19:33:37.725Z,5.14
2023-03-26T19:36:17.769Z,5.06
2023-03-26T19:39:05.133Z,5.03
2023-03-26T19:41:35.517Z,4.94
2023-03-26T19:44:17.801Z,4.88
2023-03-26T19:46:53.042Z,4.84
2023-03-26T19:49:28.549Z,4.81
2023-03-26T19:52:04.267Z,4.74
2023-03-26T19:54:31.122Z,4.71
2023-03-26T19:56:58.439Z,4.70
2023-03-26T19:59:25.050Z,4.68
2023-03-26T20:01:51.514Z,4.64
2023-03-26T20:04:18.117Z,4.62
2023-03-26T20:06:53.710Z,4.61
2023-03-26T20:09:21.366Z,4.59
2023-03-26T20:11:47.819Z,4.58
2023-03-26T20:14:16.906Z,4.58
2023-03-26T20:16:46.507Z,4.57
2023-03-26T20:19:15.099Z,4.55
2023-03-26T20:21:42.368Z,4.57
2023-03-26T20:24:17.270Z,4.57
2023-03-26T20:26:45.822Z,4.56
2023-03-26T20:29:13.020Z,4.57
2023-03-26T20:31:41.593Z,4.55
2023-03-26T20:34:22.076Z,4.54
2023-03-26T20:36:54.909Z,4.53
2023-03-26T20:39:25.184Z,4.50
2023-03-26T20:41:53.757Z,4.48
2023-03-26T20:44:21.873Z,4.47
2023-03-26T20:46:49.472Z,4.44
2023-03-26T20:49:16.355Z,4.41
2023-03-26T20:51:43.698Z,4.34
2023-03-26T20:54:15.348Z,4.30
2023-03-26T20:56:42.250Z,4.25
2023-03-26T20:59:11.536Z,4.23
2023-03-26T21:01:38.777Z,4.19
2023-03-26T21:04:06.112Z,4.18
2023-03-26T21:06:32.538Z,4.13
2023-03-26T21:08:59.233Z,4.07
2023-03-26T21:11:49.987Z,4.02
2023-03-26T21:14:23.808Z,3.99
2023-03-26T21:16:50.715Z,3.97
2023-03-26T21:19:17.767Z,3.95
2023-03-26T21:21:57.708Z,3.87
2023-03-26T21:25:06.105Z,3.81
2023-03-26T21:28:05.486Z,3.76
2023-03-26T21:30:34.142Z,3.72
2023-03-26T21:33:01.525Z,3.65
2023-03-26T21:35:28.324Z,3.61
2023-03-26T21:37:57.543Z,3.60
2023-03-26T21:40:24.264Z,3.58
2023-03-26T21:42:53.367Z,3.54
2023-03-26T21:45:21.053Z,3.51
2023-03-26T21:47:48.195Z,3.47
2023-03-26T21:50:18.997Z,3.45
2023-03-26T21:52:48.392Z,3.41
2023-03-26T21:55:22.857Z,3.40
2023-03-26T21:58:20.319Z,3.40
2023-03-26T22:01:16.610Z,3.44
2023-03-26T22:03:52.136Z,3.46
2023-03-26T22:06:56.698Z,3.49
2023-03-26T22:09:33.972Z,3.54
2023-03-26T22:12:03.390Z,3.58
2023-03-26T22:14:29.836Z,3.64
2023-03-26T22:16:56.521Z,3.66
2023-03-26T22:19:23.003Z,3.72
2023-03-26T22:21:50.969Z,3.75
2023-03-26T22:24:17.728Z,3.78
2023-03-26T22:26:44.248Z,3.80
2023-03-26T22:29:11.051Z,3.82
2023-03-26T22:31:39.148Z,3.82
2023-03-26T22:34:06.131Z,3.83
2023-03-26T22:36:32.600Z,3.84
2023-03-26T22:38:59.060Z,3.83
2023-03-26T22:41:25.867Z,3.80
2023-03-26T22:43:56.840Z,3.76
2023-03-26T22:46:25.506Z,3.71
2023-03-26T22:48:52.181Z,3.65
2023-03-26T22:51:18.929Z,3.62
2023-03-26T22:53:45.889Z,3.59
2023-03-26T22:56:14.238Z,3.56
2023-03-26T22:58:42.239Z,3.51
2023-03-26T23:01:16.784Z,3.47
2023-03-26T23:03:43.989Z,3.43
2023-03-26T23:06:12.116Z,3.42
2023-03-26T23:08:39.742Z,3.42
2023-03-26T23:11:17.418Z,3.43
2023-03-26T23:13:44.913Z,3.45
2023-03-26T23:16:12.704Z,3.48
2023-03-26T23:18:39.825Z,3.49
2023-03-26T23:21:11.959Z,3.50
2023-03-26T23:23:39.595Z,3.50
2023-03-26T23:26:06.931Z,3.48
2023-03-26T23:28:34.441Z,3.47
2023-03-26T23:31:03.301Z,3.48
2023-03-26T23:33:34.211Z,3.48
2023-03-26T23:36:04.245Z,3.50
2023-03-26T23:38:44.005Z,3.56
2023-03-26T23:41:15.365Z,3.58
2023-03-26T23:43:54.322Z,3.56
2023-03-26T23:46:30.652Z,3.55
2023-03-26T23:49:02.161Z,3.55
2023-03-26T23:51:30.290Z,3.53
2023-03-26T23:53:57.814Z,3.53
2023-03-26T23:56:24.365Z,3.51
2023-03-26T23:58:50.894Z,3.52
